Time;durP1;ratioP1;P1;durP2;ratioP2;P2;SDS_P1;SDS_P2;PMS_P1;PMS_P2;Temp;Humidity;BMP_temperature;BMP_pressure;BME280_temperature;BME280_humidity;BME280_pressure;Samples;Min_cycle;Max_cycle;Signal;HPM_P1;HPM_P2
2023/05/10 00:02:07;;;;;;;;;1.00;0.33;;;;;-143.57;100.00;65101.44;5118762;27;45458;-42
2023/05/10 00:04:32;;;;;;;;;3.00;1.33;;;;;-143.57;100.00;65101.44;5119340;27;45479;-43
2023/05/10 00:06:57;;;;;;;;;2.33;0.00;;;;;-143.57;100.00;65101.44;5119391;27;45458;-42
2023/05/10 00:09:23;;;;;;;;;0.33;0.33;;;;;-143.57;100.00;65101.44;5119280;27;45428;-43
2023/05/10 00:11:48;;;;;;;;;0.67;0.00;;;;;-143.57;100.00;65101.44;5119266;27;45381;-41
2023/05/10 00:14:14;;;;;;;;;2.00;1.00;;;;;-143.57;100.00;65101.44;5119166;27;45388;-43
2023/05/10 00:16:39;;;;;;;;;3.00;1.00;;;;;-143.57;100.00;65101.44;5100560;27;45472;-43
2023/05/10 00:19:04;;;;;;;;;3.33;1.00;;;;;-143.57;100.00;65101.44;5118951;27;46277;-43
2023/05/10 00:21:30;;;;;;;;;0.67;0.67;;;;;-143.57;100.00;65101.44;5119275;27;45400;-43
2023/05/10 00:23:55;;;;;;;;;0.67;0.67;;;;;-143.57;100.00;65101.44;5100628;27;45293;-42
2023/05/10 00:26:21;;;;;;;;;3.33;1.00;;;;;-143.57;100.00;65101.44;5119321;27;45343;-42
2023/05/10 00:28:46;;;;;;;;;3.67;0.33;;;;;-143.57;100.00;65101.44;5118646;27;46039;-43
2023/05/10 00:31:11;;;;;;;;;2.00;1.00;;;;;-143.57;100.00;65101.44;5118330;27;45417;-43
2023/05/10 00:33:37;;;;;;;;;1.67;1.00;;;;;-143.57;100.00;65101.44;5118510;27;45529;-43
2023/05/10 00:36:02;;;;;;;;;0.33;0.33;;;;;-143.57;100.00;65101.44;5118579;27;45464;-43
2023/05/10 00:38:28;;;;;;;;;2.00;0.00;;;;;-143.57;100.00;65101.44;5118243;27;45427;-43
2023/05/10 00:40:53;;;;;;;;;0.00;0.00;;;;;-143.57;100.00;65101.44;5118342;27;45352;-42
2023/05/10 00:43:19;;;;;;;;;1.00;1.00;;;;;-143.57;100.00;65101.44;5118447;27;45224;-42
2023/05/10 00:45:44;;;;;;;;;1.00;1.00;;;;;-143.57;100.00;65101.44;5118082;27;45207;-42
2023/05/10 00:48:10;;;;;;;;;0.00;0.00;;;;;-143.57;100.00;65101.44;5117972;27;45715;-42
2023/05/10 00:50:35;;;;;;;;;1.33;1.00;;;;;-143.57;100.00;65101.44;5118074;27;45318;-41
2023/05/10 00:53:02;;;;;;;;;0.33;0.33;;;;;-143.57;100.00;65101.44;5118152;27;45377;-44
2023/05/10 00:55:28;;;;;;;;;0.00;0.00;;;;;-143.57;100.00;65101.44;5116747;27;45479;-43
2023/05/10 00:57:54;;;;;;;;;3.00;1.00;;;;;-143.57;100.00;65101.44;5117812;27;46141;-42
2023/05/10 01:00:20;;;;;;;;;2.00;0.00;;;;;-143.57;100.00;65101.44;5116899;27;45302;-41
2023/05/10 01:02:46;;;;;;;;;4.00;2.33;;;;;-143.57;100.00;65101.44;5116268;27;45365;-42
2023/05/10 01:05:12;;;;;;;;;0.00;0.00;;;;;-143.57;100.00;65101.44;5117887;27;45346;-43
2023/05/10 01:07:38;;;;;;;;;4.00;1.00;;;;;-143.57;100.00;65101.44;5117919;27;45481;-41
2023/05/10 01:10:08;;;;;;;;;0.00;0.00;;;;;-143.57;100.00;65101.44;5117530;27;45369;-42
2023/05/10 01:12:37;;;;;;;;;0.00;0.00;;;;;-143.57;100.00;65101.44;5117571;27;45476;-41
2023/05/10 01:15:03;;;;;;;;;2.00;0.00;;;;;-143.57;100.00;65101.44;5117988;27;45255;-41
2023/05/10 01:17:29;;;;;;;;;1.33;0.00;;;;;-143.57;100.00;65101.44;5098784;27;45987;-41
2023/05/10 01:19:55;;;;;;;;;0.00;0.00;;;;;-143.57;100.00;65101.44;5117484;27;45384;-42
2023/05/10 01:22:44;;;;;;;;;0.00;0.00;;;;;-143.57;100.00;65101.44;5117649;27;45246;-41
2023/05/10 01:25:23;;;;;;;;;2.33;1.00;;;;;-143.57;100.00;65101.44;5117791;27;45432;-41
2023/05/10 01:28:14;;;;;;;;;4.00;1.00;;;;;-143.57;100.00;65101.44;5117215;27;46994;-42
2023/05/10 01:31:04;;;;;;;;;0.33;0.00;;;;;-143.57;100.00;65101.44;5117727;27;45319;-46
2023/05/10 01:34:01;;;;;;;;;1.00;0.67;;;;;-143.57;100.00;65101.44;5116997;27;45355;-44
2023/05/10 01:36:38;;;;;;;;;0.00;0.00;;;;;-143.57;100.00;65101.44;5117578;27;45271;-41
2023/05/10 01:39:14;;;;;;;;;1.00;1.00;;;;;-143.57;100.00;65101.44;5117102;27;47106;-42
2023/05/10 01:41:42;;;;;;;;;0.00;0.00;;;;;-143.57;100.00;65101.44;5117154;27;45251;-42
2023/05/10 01:44:12;;;;;;;;;0.00;0.00;;;;;-143.57;100.00;65101.44;5117197;27;45307;-41
2023/05/10 01:46:39;;;;;;;;;0.00;0.00;;;;;-143.57;100.00;65101.44;5117523;27;45490;-42
2023/05/10 01:49:10;;;;;;;;;0.67;0.00;;;;;-143.57;100.00;65101.44;5116877;27;46973;-43
2023/05/10 01:51:44;;;;;;;;;2.00;0.00;;;;;-143.57;100.00;65101.44;5117207;27;45401;-41
2023/05/10 01:54:13;;;;;;;;;2.00;0.00;;;;;-143.57;100.00;65101.44;5117290;27;45309;-42
2023/05/10 01:56:41;;;;;;;;;0.67;0.00;;;;;-143.57;100.00;65101.44;5117136;27;45365;-42
2023/05/10 01:59:15;;;;;;;;;0.33;0.00;;;;;-143.57;100.00;65101.44;5116929;27;46567;-40
2023/05/10 02:01:42;;;;;;;;;1.00;0.00;;;;;-143.57;100.00;65101.44;5115562;27;45374;-43
2023/05/10 02:04:10;;;;;;;;;2.00;1.00;;;;;-143.57;100.00;65101.44;5116846;27;45314;-42
2023/05/10 02:06:38;;;;;;;;;2.00;1.00;;;;;-143.57;100.00;65101.44;5117372;27;45329;-41
2023/05/10 02:09:06;;;;;;;;;1.33;0.00;;;;;-143.57;100.00;65101.44;5116838;27;45439;-42
2023/05/10 02:11:33;;;;;;;;;0.67;0.00;;;;;-143.57;100.00;65101.44;5119519;27;45321;-41
2023/05/10 02:13:59;;;;;;;;;0.00;0.00;;;;;-143.57;100.00;65101.44;5120645;27;45417;-41
2023/05/10 02:16:27;;;;;;;;;0.00;0.00;;;;;-143.57;100.00;65101.44;5119949;27;45514;-43
2023/05/10 02:18:53;;;;;;;;;0.67;0.00;;;;;-143.57;100.00;65101.44;5120063;27;46437;-42
2023/05/10 02:21:21;;;;;;;;;0.00;0.00;;;;;-143.57;100.00;65101.44;5120528;27;45309;-42
2023/05/10 02:23:50;;;;;;;;;0.00;0.00;;;;;-143.57;100.00;65101.44;5120189;27;45350;-42
2023/05/10 02:26:18;;;;;;;;;0.00;0.00;;;;;-143.57;100.00;65101.44;5120434;27;45367;-42
2023/05/10 02:28:45;;;;;;;;;0.00;0.00;;;;;-143.57;100.00;65101.44;5120244;27;45407;-42
2023/05/10 02:31:11;;;;;;;;;1.00;0.00;;;;;-143.57;100.00;65101.44;5119948;27;45325;-41
2023/05/10 02:33:40;;;;;;;;;0.00;0.00;;;;;-143.57;100.00;65101.44;5119836;27;45535;-41
2023/05/10 02:36:07;;;;;;;;;0.00;0.00;;;;;-143.57;100.00;65101.44;5120440;27;45353;-43
2023/05/10 02:38:33;;;;;;;;;0.00;0.00;;;;;-143.57;100.00;65101.44;5119813;27;47159;-42
2023/05/10 02:40:59;;;;;;;;;0.67;0.67;;;;;-143.57;100.00;65101.44;5120002;27;45301;-42
2023/05/10 02:43:25;;;;;;;;;0.00;0.00;;;;;-143.57;100.00;65101.44;5101734;27;45475;-43
2023/05/10 02:45:51;;;;;;;;;0.00;0.00;;;;;-143.57;100.00;65101.44;5120668;27;45386;-41
2023/05/10 02:48:17;;;;;;;;;0.00;0.00;;;;;-143.57;100.00;65101.44;5119889;27;46175;-43
2023/05/10 02:50:45;;;;;;;;;0.00;0.00;;;;;-143.57;100.00;65101.44;5120006;27;45370;-41
2023/05/10 02:53:15;;;;;;;;;1.33;0.67;;;;;-143.57;100.00;65101.44;5120295;27;45272;-42
2023/05/10 02:55:44;;;;;;;;;2.00;0.00;;;;;-143.57;100.00;65101.44;5120125;27;45452;-42
2023/05/10 02:58:10;;;;;;;;;0.33;0.00;;;;;-143.57;100.00;65101.44;5119906;27;46204;-40
2023/05/10 03:00:36;;;;;;;;;0.00;0.00;;;;;-143.57;100.00;65101.44;5119781;27;45191;-43
2023/05/10 03:03:01;;;;;;;;;1.67;0.00;;;;;-143.57;100.00;65101.44;5119712;27;45212;-43
2023/05/10 03:05:27;;;;;;;;;0.00;0.00;;;;;-143.57;100.00;65101.44;5119830;27;45493;-42
2023/05/10 03:07:53;;;;;;;;;1.00;1.00;;;;;-143.57;100.00;65101.44;5118923;27;45199;-42
2023/05/10 03:10:20;;;;;;;;;0.00;0.00;;;;;-143.57;100.00;65101.44;5119328;27;45418;-43
2023/05/10 03:13:05;;;;;;;;;1.00;1.00;;;;;-143.57;100.00;65101.44;5119597;27;45346;-41
2023/05/10 03:15:37;;;;;;;;;0.33;0.33;;;;;-143.57;100.00;65101.44;5119641;27;45487;-42
2023/05/10 03:18:34;;;;;;;;;3.00;0.00;;;;;-143.57;100.00;65101.44;5118960;27;47048;-41
2023/05/10 03:21:05;;;;;;;;;0.00;0.00;;;;;-143.57;100.00;65101.44;5118143;27;45302;-42
2023/05/10 03:23:35;;;;;;;;;1.00;1.00;;;;;-143.57;100.00;65101.44;5118364;27;45480;-42
2023/05/10 03:26:02;;;;;;;;;2.33;0.00;;;;;-143.57;100.00;65101.44;5119413;27;45425;-42
2023/05/10 03:28:28;;;;;;;;;0.00;0.00;;;;;-143.57;100.00;65101.44;5119164;27;47202;-42
2023/05/10 03:30:55;;;;;;;;;0.00;0.00;;;;;-143.57;100.00;65101.44;5119109;27;45428;-43
2023/05/10 03:33:20;;;;;;;;;1.67;0.00;;;;;-143.57;100.00;65101.44;5118970;27;45353;-43
2023/05/10 03:35:46;;;;;;;;;0.00;0.00;;;;;-143.57;100.00;65101.44;5119436;27;45241;-43
2023/05/10 03:38:12;;;;;;;;;1.00;0.00;;;;;-143.57;100.00;65101.44;5118914;27;46303;-42
2023/05/10 03:40:37;;;;;;;;;1.33;0.00;;;;;-143.57;100.00;65101.44;5119156;27;45252;-41
2023/05/10 03:43:03;;;;;;;;;0.00;0.00;;;;;-143.57;100.00;65101.44;5119113;27;45213;-42
2023/05/10 03:45:28;;;;;;;;;0.00;0.00;;;;;-143.57;100.00;65101.44;5119296;27;45386;-42
2023/05/10 03:47:56;;;;;;;;;0.00;0.00;;;;;-143.57;100.00;65101.44;5118752;27;47181;-42
2023/05/10 03:50:22;;;;;;;;;0.00;0.00;;;;;-143.57;100.00;65101.44;5118944;27;45781;-42
2023/05/10 03:52:47;;;;;;;;;2.00;0.33;;;;;-143.57;100.00;65101.44;5118056;27;45358;-43
2023/05/10 03:55:16;;;;;;;;;0.00;0.00;;;;;-143.57;100.00;65101.44;5119092;27;45890;-42
2023/05/10 03:57:43;;;;;;;;;0.67;0.67;;;;;-143.57;100.00;65101.44;5118504;27;46244;-43
2023/05/10 04:00:09;;;;;;;;;2.00;0.00;;;;;-143.57;100.00;65101.44;5118641;27;45349;-43
2023/05/10 04:02:35;;;;;;;;;2.00;0.00;;;;;-143.57;100.00;65101.44;5118708;27;45408;-42
2023/05/10 04:05:03;;;;;;;;;0.00;0.00;;;;;-143.57;100.00;65101.44;5119134;27;45388;-43
2023/05/10 04:07:29;;;;;;;;;0.00;0.00;;;;;-143.57;100.00;65101.44;5118602;27;46859;-43
2023/05/10 04:09:54;;;;;;;;;1.00;0.00;;;;;-143.57;100.00;65101.44;5118692;27;45329;-42
2023/05/10 04:12:19;;;;;;;;;1.67;0.00;;;;;-143.57;100.00;65101.44;5118658;27;45301;-42
2023/05/10 04:14:52;;;;;;;;;0.00;0.00;;;;;-143.57;100.00;65101.44;5118403;27;45293;-42
2023/05/10 04:17:18;;;;;;;;;0.00;0.00;;;;;-143.57;100.00;65101.44;5118720;27;45267;-42
2023/05/10 04:19:43;;;;;;;;;1.00;1.00;;;;;-143.57;100.00;65101.44;5118339;27;45397;-42
2023/05/10 04:22:08;;;;;;;;;0.00;0.00;;;;;-143.57;100.00;65101.44;5118428;27;45254;-42
2023/05/10 04:24:34;;;;;;;;;0.33;0.00;;;;;-143.57;100.00;65101.44;5118808;27;45431;-42
2023/05/10 04:27:02;;;;;;;;;0.00;0.00;;;;;-143.57;100.00;65101.44;5099600;27;48543;-40
2023/05/10 04:29:27;;;;;;;;;0.00;0.00;;;;;-143.57;100.00;65101.44;5118082;27;45253;-41
2023/05/10 04:31:53;;;;;;;;;0.00;0.00;;;;;-143.57;100.00;65101.44;5118186;27;45568;-41
2023/05/10 04:34:20;;;;;;;;;1.00;1.00;;;;;-143.57;100.00;65101.44;5118187;27;45458;-41
2023/05/10 04:36:45;;;;;;;;;0.00;0.00;;;;;-143.57;100.00;65101.44;5118286;27;47077;-42
2023/05/10 04:39:13;;;;;;;;;0.00;0.00;;;;;-143.57;100.00;65101.44;5118163;27;45314;-40
2023/05/10 04:41:39;;;;;;;;;0.00;0.00;;;;;-143.57;100.00;65101.44;5118183;27;45582;-42
2023/05/10 04:44:04;;;;;;;;;0.33;0.33;;;;;-143.57;100.00;65101.44;5118510;27;45360;-42
2023/05/10 04:46:34;;;;;;;;;2.00;0.00;;;;;-143.57;100.00;65101.44;5118085;27;45234;-43
2023/05/10 04:49:00;;;;;;;;;0.00;0.00;;;;;-143.57;100.00;65101.44;5118091;27;45485;-42
2023/05/10 04:51:25;;;;;;;;;0.00;0.00;;;;;-143.57;100.00;65101.44;5118257;27;45319;-42
2023/05/10 04:53:50;;;;;;;;;0.00;0.00;;;;;-143.57;100.00;65101.44;5118449;27;45520;-41
2023/05/10 04:56:16;;;;;;;;;0.67;0.33;;;;;-143.57;100.00;65101.44;5118012;27;47534;-43
2023/05/10 04:58:41;;;;;;;;;1.00;1.00;;;;;-143.57;100.00;65101.44;5117909;27;45388;-43
2023/05/10 05:01:10;;;;;;;;;0.33;0.33;;;;;-143.57;100.00;65101.44;5118292;27;45312;-43
2023/05/10 05:03:36;;;;;;;;;2.00;0.00;;;;;-143.57;100.00;65101.44;5118129;27;45415;-44
2023/05/10 05:06:01;;;;;;;;;1.33;1.33;;;;;-143.57;100.00;65101.44;5117831;27;45456;-42
2023/05/10 05:08:27;;;;;;;;;1.00;1.00;;;;;-143.57;100.00;65101.44;5117791;27;45400;-41
2023/05/10 05:10:52;;;;;;;;;0.00;0.00;;;;;-143.57;100.00;65101.44;5118028;27;45265;-41
2023/05/10 05:13:18;;;;;;;;;1.00;1.00;;;;;-143.57;100.00;65101.44;5118279;27;45226;-42
2023/05/10 05:15:43;;;;;;;;;0.00;0.00;;;;;-143.57;100.00;65101.44;5117818;27;46982;-42
2023/05/10 05:18:09;;;;;;;;;1.00;1.00;;;;;-143.57;100.00;65101.44;5117727;27;45390;-44
2023/05/10 05:20:34;;;;;;;;;0.67;0.67;;;;;-143.57;100.00;65101.44;5117699;27;45415;-46
2023/05/10 05:23:00;;;;;;;;;0.00;0.00;;;;;-143.57;100.00;65101.44;5117934;27;45403;-44
2023/05/10 05:25:25;;;;;;;;;1.00;1.00;;;;;-143.57;100.00;65101.44;5117663;27;45981;-42
2023/05/10 05:27:51;;;;;;;;;2.67;1.00;;;;;-143.57;100.00;65101.44;5117718;27;45379;-46
2023/05/10 05:30:16;;;;;;;;;3.00;1.00;;;;;-143.57;100.00;65101.44;5117724;27;45503;-45
2023/05/10 05:32:42;;;;;;;;;2.00;2.00;;;;;-143.57;100.00;65101.44;5117844;27;45606;-44
2023/05/10 05:35:07;;;;;;;;;1.67;1.67;;;;;-143.57;100.00;65101.44;5117562;27;45779;-46
2023/05/10 05:37:33;;;;;;;;;4.00;2.00;;;;;-143.57;100.00;65101.44;5117885;27;45313;-45
2023/05/10 05:39:58;;;;;;;;;1.67;1.00;;;;;-143.57;100.00;65101.44;5116720;27;45573;-42
2023/05/10 05:42:23;;;;;;;;;2.00;0.67;;;;;-143.57;100.00;65101.44;5117675;27;45271;-42
2023/05/10 05:44:49;;;;;;;;;4.00;1.67;;;;;-143.57;100.00;65101.44;5117625;27;46276;-43
2023/05/10 05:47:14;;;;;;;;;1.00;1.00;;;;;-143.57;100.00;65101.44;5121242;27;45283;-42
2023/05/10 05:49:39;;;;;;;;;1.33;1.00;;;;;-143.57;100.00;65101.44;5121341;27;45401;-45
2023/05/10 05:52:05;;;;;;;;;3.00;1.00;;;;;-143.57;100.00;65101.44;5121526;27;45591;-42
2023/05/10 05:54:31;;;;;;;;;0.33;0.33;;;;;-143.57;100.00;65101.44;5120919;27;46114;-41
2023/05/10 05:56:57;;;;;;;;;1.00;1.00;;;;;-143.57;100.00;65101.44;5121011;27;45353;-41
2023/05/10 05:59:23;;;;;;;;;1.00;1.00;;;;;-143.57;100.00;65101.44;5121254;27;45262;-42
2023/05/10 06:01:49;;;;;;;;;2.67;2.00;;;;;-143.57;100.00;65101.44;5121330;27;45330;-41
2023/05/10 06:04:14;;;;;;;;;2.67;1.00;;;;;-143.57;100.00;65101.44;5120809;27;45536;-46
2023/05/10 06:06:40;;;;;;;;;3.33;1.00;;;;;-143.57;100.00;65101.44;5120914;27;45378;-41
2023/05/10 06:09:05;;;;;;;;;1.00;1.00;;;;;-143.57;100.00;65101.44;5120961;27;45413;-42
2023/05/10 06:11:32;;;;;;;;;1.67;1.67;;;;;-143.57;100.00;65101.44;5121203;27;45415;-43
2023/05/10 06:13:58;;;;;;;;;2.67;2.00;;;;;-143.57;100.00;65101.44;5102241;27;47091;-42
2023/05/10 06:16:23;;;;;;;;;3.67;1.00;;;;;-143.57;100.00;65101.44;5120981;27;45330;-43
2023/05/10 06:18:48;;;;;;;;;1.67;1.67;;;;;-143.57;100.00;65101.44;5120705;27;45369;-40
2023/05/10 06:21:14;;;;;;;;;4.00;2.00;;;;;-143.57;100.00;65101.44;5120534;27;45217;-44
2023/05/10 06:23:40;;;;;;;;;3.67;1.67;;;;;-143.57;100.00;65101.44;5120554;27;45420;-44
2023/05/10 06:26:05;;;;;;;;;3.00;1.33;;;;;-143.57;100.00;65101.44;5120436;27;45327;-44
2023/05/10 06:28:32;;;;;;;;;1.67;1.67;;;;;-143.57;100.00;65101.44;5101115;27;45401;-44
2023/05/10 06:30:57;;;;;;;;;1.00;1.00;;;;;-143.57;100.00;65101.44;5120977;27;45372;-42
2023/05/10 06:33:22;;;;;;;;;1.00;1.00;;;;;-143.57;100.00;65101.44;5119646;27;47030;-42
2023/05/10 06:35:48;;;;;;;;;1.00;0.67;;;;;-143.57;100.00;65101.44;5117546;27;45752;-45
2023/05/10 06:38:13;;;;;;;;;2.00;2.00;;;;;-143.57;100.00;65101.44;5116703;27;45439;-43
2023/05/10 06:40:42;;;;;;;;;1.00;1.00;;;;;-143.57;100.00;65101.44;5114264;27;46718;-44
2023/05/10 06:43:07;;;;;;;;;2.33;1.00;;;;;-143.57;100.00;65101.44;5116662;27;46356;-41
2023/05/10 06:45:32;;;;;;;;;5.33;2.00;;;;;-143.57;100.00;65101.44;5117218;27;45622;-42
2023/05/10 06:47:58;;;;;;;;;2.00;2.00;;;;;-143.57;100.00;65101.44;5117112;27;45493;-43
2023/05/10 06:50:23;;;;;;;;;4.67;3.00;;;;;-143.57;100.00;65101.44;5117150;27;45483;-46
2023/05/10 06:52:48;;;;;;;;;2.00;2.00;;;;;-143.57;100.00;65101.44;5117192;27;45856;-46
2023/05/10 06:55:14;;;;;;;;;2.33;2.00;;;;;-143.57;100.00;65101.44;5116874;27;45450;-43
2023/05/10 06:57:39;;;;;;;;;2.00;2.00;;;;;-143.57;100.00;65101.44;5115781;27;45481;-45
2023/05/10 07:00:05;;;;;;;;;3.00;1.00;;;;;-143.57;100.00;65101.44;5117934;27;45409;-44
2023/05/10 07:02:31;;;;;;;;;2.00;2.00;;;;;-143.57;100.00;65101.44;5114258;27;47444;-44
2023/05/10 07:04:57;;;;;;;;;2.00;2.00;;;;;-143.57;100.00;65101.44;5117477;27;45347;-42
2023/05/10 07:07:22;;;;;;;;;3.33;2.00;;;;;-143.57;100.00;65101.44;5117194;27;45440;-44
2023/05/10 07:09:49;;;;;;;;;2.00;1.67;;;;;-143.57;100.00;65101.44;5114890;27;45448;-45
2023/05/10 07:12:14;;;;;;;;;1.00;1.00;;;;;-143.57;100.00;65101.44;5114818;27;47122;-46
2023/05/10 07:14:40;;;;;;;;;2.33;2.00;;;;;-143.57;100.00;65101.44;5117013;27;45367;-48
2023/05/10 07:17:05;;;;;;;;;3.00;3.00;;;;;-143.57;100.00;65101.44;5117259;27;45371;-44
2023/05/10 07:19:32;;;;;;;;;7.00;2.00;;;;;-143.57;100.00;65101.44;5116750;27;45460;-43
2023/05/10 07:21:57;;;;;;;;;2.00;2.00;;;;;-143.57;100.00;65101.44;5116976;27;46393;-41
2023/05/10 07:24:23;;;;;;;;;4.67;2.67;;;;;-143.57;100.00;65101.44;5098069;27;45821;-42
2023/05/10 07:26:48;;;;;;;;;3.00;3.00;;;;;-143.57;100.00;65101.44;5116753;27;45462;-42
2023/05/10 07:29:13;;;;;;;;;3.00;3.00;;;;;-143.57;100.00;65101.44;5117075;27;45561;-41
2023/05/10 07:31:41;;;;;;;;;4.00;3.33;;;;;-143.57;100.00;65101.44;5088386;27;46296;-44
2023/05/10 07:34:09;;;;;;;;;2.00;2.00;;;;;-143.57;100.00;65101.44;5116592;27;45888;-40
2023/05/10 07:36:34;;;;;;;;;8.00;3.00;;;;;-143.57;100.00;65101.44;5116389;27;45579;-42
2023/05/10 07:39:07;;;;;;;;;3.00;3.00;;;;;-143.57;100.00;65101.44;5116887;27;45487;-42
2023/05/10 07:41:35;;;;;;;;;8.67;3.00;;;;;-143.57;100.00;65101.44;5115401;27;45468;-40
2023/05/10 07:44:00;;;;;;;;;4.00;2.00;;;;;-143.57;100.00;65101.44;5116148;27;45479;-40
2023/05/10 07:46:26;;;;;;;;;3.67;3.33;;;;;-143.57;100.00;65101.44;5116122;27;45488;-40
2023/05/10 07:48:51;;;;;;;;;3.67;2.00;;;;;-143.57;100.00;65101.44;5117067;27;45409;-41
2023/05/10 07:51:16;;;;;;;;;1.33;1.33;;;;;-143.57;100.00;65101.44;5112516;27;45676;-41
2023/05/10 07:53:42;;;;;;;;;2.67;2.67;;;;;-143.57;100.00;65101.44;5116354;27;45495;-40
2023/05/10 07:56:29;;;;;;;;;3.00;1.00;;;;;-143.57;100.00;65101.44;5116437;27;45417;-41
2023/05/10 07:58:55;;;;;;;;;1.00;1.00;;;;;-143.57;100.00;65101.44;5116625;27;45443;-40
2023/05/10 08:01:21;;;;;;;;;1.00;1.00;;;;;-143.57;100.00;65101.44;5116048;27;45429;-39
2023/05/10 08:03:47;;;;;;;;;1.33;1.00;;;;;-143.57;100.00;65101.44;5115680;27;45427;-41
2023/05/10 08:06:12;;;;;;;;;3.33;2.00;;;;;-143.57;100.00;65101.44;5116238;27;45367;-41
2023/05/10 08:08:38;;;;;;;;;3.33;3.33;;;;;-143.57;100.00;65101.44;5116393;27;46381;-41
2023/05/10 08:11:03;;;;;;;;;3.33;3.00;;;;;-143.57;100.00;65101.44;5116105;27;45964;-42
2023/05/10 08:13:29;;;;;;;;;3.00;3.00;;;;;-143.57;100.00;65101.44;5116226;27;45857;-41
2023/05/10 08:15:54;;;;;;;;;10.33;3.67;;;;;-143.57;100.00;65101.44;5116136;27;45475;-42
2023/05/10 08:18:20;;;;;;;;;4.00;4.00;;;;;-143.57;100.00;65101.44;5116321;27;46351;-41
2023/05/10 08:20:45;;;;;;;;;4.67;3.00;;;;;-143.57;100.00;65101.44;5115876;27;45919;-44
2023/05/10 08:23:13;;;;;;;;;4.00;4.00;;;;;-143.57;100.00;65101.44;5115130;27;45943;-43
2023/05/10 08:25:38;;;;;;;;;4.67;2.00;;;;;-143.57;100.00;65101.44;5115811;27;46470;-42
2023/05/10 08:28:03;;;;;;;;;3.00;3.00;;;;;-143.57;100.00;65101.44;5115904;27;45432;-41
2023/05/10 08:30:29;;;;;;;;;2.67;2.67;;;;;-143.57;100.00;65101.44;5115527;27;46119;-41
2023/05/10 08:32:54;;;;;;;;;7.00;6.00;;;;;-143.57;100.00;65101.44;5115626;27;45324;-42
2023/05/10 08:35:20;;;;;;;;;3.00;3.00;;;;;-143.57;100.00;65101.44;5094544;27;45509;-41
2023/05/10 08:37:45;;;;;;;;;6.67;4.67;;;;;-143.57;100.00;65101.44;5115966;27;45821;-41
2023/05/10 08:40:11;;;;;;;;;8.00;4.00;;;;;-143.57;100.00;65101.44;5115033;27;46130;-43
2023/05/10 08:42:40;;;;;;;;;5.00;3.00;;;;;-143.57;100.00;65101.44;5114985;27;45429;-41
2023/05/10 08:45:07;;;;;;;;;7.00;2.00;;;;;-143.57;100.00;65101.44;5114507;27;45481;-41
2023/05/10 08:47:34;;;;;;;;;3.00;3.00;;;;;-143.57;100.00;65101.44;5116567;27;45870;-42
2023/05/10 08:50:02;;;;;;;;;3.00;2.00;;;;;-143.57;100.00;65101.44;5115441;27;45798;-44
2023/05/10 08:52:30;;;;;;;;;2.00;2.00;;;;;-143.57;100.00;65101.44;5115194;27;45406;-42
2023/05/10 08:54:56;;;;;;;;;4.00;3.00;;;;;-143.57;100.00;65101.44;5115818;27;45537;-42
2023/05/10 08:57:22;;;;;;;;;3.00;2.00;;;;;-143.57;100.00;65101.44;5115470;27;45428;-42
2023/05/10 08:59:47;;;;;;;;;1.00;1.00;;;;;-143.57;100.00;65101.44;5114900;27;46151;-40
2023/05/10 09:02:13;;;;;;;;;2.33;2.33;;;;;-143.57;100.00;65101.44;5115456;27;45563;-41
2023/05/10 09:04:39;;;;;;;;;3.00;2.00;;;;;-143.57;100.00;65101.44;5114931;27;45386;-41
2023/05/10 09:07:05;;;;;;;;;4.00;2.67;;;;;-143.57;100.00;65101.44;5115375;27;45473;-42
2023/05/10 09:09:31;;;;;;;;;5.00;5.00;;;;;-143.57;100.00;65101.44;5115314;27;45406;-42
2023/05/10 09:11:56;;;;;;;;;5.67;5.67;;;;;-143.57;100.00;65101.44;5117068;27;45433;-42
2023/05/10 09:14:24;;;;;;;;;11.33;4.67;;;;;-143.57;100.00;65101.44;5118226;27;45439;-42
2023/05/10 09:16:49;;;;;;;;;6.00;5.67;;;;;-143.57;100.00;65101.44;5118319;27;45461;-41
2023/05/10 09:19:15;;;;;;;;;7.67;6.00;;;;;-143.57;100.00;65101.44;5117642;27;46277;-42
2023/05/10 09:21:40;;;;;;;;;9.00;6.00;;;;;-143.57;100.00;65101.44;5117012;27;45375;-42
2023/05/10 09:24:07;;;;;;;;;8.67;5.00;;;;;-143.57;100.00;65101.44;5118079;27;45400;-42
2023/05/10 09:26:35;;;;;;;;;13.00;5.33;;;;;-143.57;100.00;65101.44;5118167;27;45279;-42
2023/05/10 09:29:01;;;;;;;;;8.67;5.33;;;;;-143.57;100.00;65101.44;5117867;27;45337;-43
2023/05/10 09:31:50;;;;;;;;;5.67;5.00;;;;;-143.57;100.00;65101.44;5117561;27;45307;-42
2023/05/10 09:34:21;;;;;;;;;9.33;5.00;;;;;-143.57;100.00;65101.44;5117793;27;45341;-43
2023/05/10 09:36:54;;;;;;;;;5.00;5.00;;;;;-143.57;100.00;65101.44;5117840;27;45448;-44
2023/05/10 09:39:20;;;;;;;;;6.33;5.00;;;;;-143.57;100.00;65101.44;5117581;27;46134;-44
2023/05/10 09:41:47;;;;;;;;;13.67;7.33;;;;;-143.57;100.00;65101.44;5117903;27;45250;-43
2023/05/10 09:44:17;;;;;;;;;6.00;4.67;;;;;-143.57;100.00;65101.44;5117664;27;45328;-44
2023/05/10 09:46:42;;;;;;;;;11.00;5.00;;;;;-143.57;100.00;65101.44;5117377;27;45460;-42
2023/05/10 09:49:08;;;;;;;;;9.00;5.00;;;;;-143.57;100.00;65101.44;5117358;27;45436;-42
2023/05/10 09:51:34;;;;;;;;;9.33;6.33;;;;;-143.57;100.00;65101.44;5117246;27;45422;-41
2023/05/10 09:54:10;;;;;;;;;6.00;6.00;;;;;-143.57;100.00;65101.44;5117763;27;45255;-41
2023/05/10 09:56:38;;;;;;;;;4.25;4.00;;;;;-143.57;100.00;65101.44;5099053;27;45258;-42
2023/05/10 09:59:05;;;;;;;;;5.33;5.33;;;;;-143.57;100.00;65101.44;5117289;27;47065;-42
2023/05/10 10:01:30;;;;;;;;;7.00;6.33;;;;;-143.57;100.00;65101.44;5117549;27;45329;-43
2023/05/10 10:03:57;;;;;;;;;7.33;4.00;;;;;-143.57;100.00;65101.44;5098892;27;45338;-42
2023/05/10 10:06:23;;;;;;;;;7.00;6.67;;;;;-143.57;100.00;65101.44;5117602;27;45242;-43
2023/05/10 10:08:48;;;;;;;;;8.00;4.33;;;;;-143.57;100.00;65101.44;5116940;27;47165;-43
2023/05/10 10:11:14;;;;;;;;;12.00;7.00;;;;;-143.57;100.00;65101.44;5117358;27;45258;-43
2023/05/10 10:13:40;;;;;;;;;5.00;5.00;;;;;-143.57;100.00;65101.44;5117398;27;45339;-43
2023/05/10 10:16:06;;;;;;;;;10.33;5.33;;;;;-143.57;100.00;65101.44;5117571;27;45568;-41
2023/05/10 10:18:31;;;;;;;;;11.00;6.00;;;;;-143.57;100.00;65101.44;5116964;27;46419;-41
2023/05/10 10:20:57;;;;;;;;;10.00;8.67;;;;;-143.57;100.00;65101.44;5117014;27;46096;-42
2023/05/10 10:23:23;;;;;;;;;10.67;6.00;;;;;-143.57;100.00;65101.44;5116902;27;45386;-41
2023/05/10 10:25:49;;;;;;;;;7.00;5.67;;;;;-143.57;100.00;65101.44;5117562;27;45299;-41
2023/05/10 10:28:21;;;;;;;;;9.33;6.33;;;;;-143.57;100.00;65101.44;5117030;27;46141;-43
2023/05/10 10:30:49;;;;;;;;;9.00;5.67;;;;;-143.57;100.00;65101.44;5116931;27;45450;-42
2023/05/10 10:33:49;;;;;;;;;8.33;6.33;;;;;-143.57;100.00;65101.44;5118044;27;45861;-43
2023/05/10 10:36:15;;;;;;;;;7.67;7.00;;;;;-143.57;100.00;65101.44;5117504;27;45515;-42
2023/05/10 10:38:46;;;;;;;;;9.00;8.33;;;;;-143.57;100.00;65101.44;5109629;27;45518;-44
2023/05/10 10:41:40;;;;;;;;;11.67;7.67;;;;;-143.57;100.00;65101.44;5113376;27;45846;-43
2023/05/10 10:44:26;;;;;;;;;12.33;9.00;;;;;-143.57;100.00;65101.44;5116320;27;45484;-42
2023/05/10 10:47:14;;;;;;;;;7.67;7.33;;;;;-143.57;100.00;65101.44;5116490;27;45318;-43
2023/05/10 10:49:45;;;;;;;;;8.33;6.33;;;;;-143.57;100.00;65101.44;5117119;27;46303;-42
2023/05/10 10:52:29;;;;;;;;;11.00;7.00;;;;;-143.57;100.00;65101.44;5116974;27;45762;-41
2023/05/10 10:55:12;;;;;;;;;5.67;5.67;;;;;-143.57;100.00;65101.44;5117419;27;45429;-41
2023/05/10 10:57:44;;;;;;;;;11.00;6.67;;;;;-143.57;100.00;65101.44;5117697;27;45723;-42
2023/05/10 11:00:28;;;;;;;;;11.33;6.00;;;;;-143.57;100.00;65101.44;5114852;27;46028;-44
2023/05/10 11:03:16;;;;;;;;;13.67;10.33;;;;;-143.57;100.00;65101.44;5116863;27;45817;-41
2023/05/10 11:05:44;;;;;;;;;10.67;6.67;;;;;-143.57;100.00;65101.44;5116871;27;45260;-41
2023/05/10 11:08:11;;;;;;;;;12.00;7.00;;;;;-143.57;100.00;65101.44;5115301;27;45442;-40
2023/05/10 11:10:38;;;;;;;;;6.00;6.00;;;;;-143.57;100.00;65101.44;5116131;27;46423;-42
2023/05/10 11:13:06;;;;;;;;;11.00;7.67;;;;;-143.57;100.00;65101.44;5117564;27;45442;-43